createdAt,value
2022-10-02T00:01:56.613Z,15.83
2022-10-02T00:04:32.933Z,8.07
2022-10-02T00:07:05.013Z,6.47
2022-10-02T00:09:42.289Z,9.40
2022-10-02T00:12:14.250Z,13.60
2022-10-02T00:14:43.851Z,8.93
2022-10-02T00:17:25.292Z,7.70
2022-10-02T00:19:56.730Z,7.37
2022-10-02T00:22:31.730Z,11.77
2022-10-02T00:25:04.163Z,8.13
2022-10-02T00:27:49.666Z,6.20
2022-10-02T00:30:18.065Z,8.60
2022-10-02T00:32:53.750Z,8.27
2022-10-02T00:35:25.949Z,4.43
2022-10-02T00:38:17.234Z,6.70
2022-10-02T00:40:55.790Z,5.80
2022-10-02T00:43:48.802Z,6.47
2022-10-02T00:46:21.264Z,5.60
2022-10-02T00:49:08.121Z,7.73
2022-10-02T00:51:56.506Z,10.20
2022-10-02T00:54:48.404Z,4.97
2022-10-02T00:57:47.382Z,7.20
2022-10-02T01:00:19.175Z,5.00
2022-10-02T01:03:10.363Z,7.53
2022-10-02T01:05:38.022Z,4.23
2022-10-02T01:08:05.873Z,5.43
2022-10-02T01:10:33.489Z,8.30
2022-10-02T01:13:00.276Z,10.53
2022-10-02T01:15:34.632Z,14.47
2022-10-02T01:18:04.704Z,8.77
2022-10-02T01:20:44.930Z,8.20
2022-10-02T01:23:34.603Z,6.80
2022-10-02T01:26:01.635Z,6.33
2022-10-02T01:28:28.595Z,7.50
2022-10-02T01:31:01.109Z,12.13
2022-10-02T01:33:28.201Z,5.33
2022-10-02T01:35:55.202Z,10.63
2022-10-02T01:38:24.610Z,7.87
2022-10-02T01:40:51.577Z,9.73
2022-10-02T01:43:35.613Z,4.50
2022-10-02T01:46:20.179Z,12.37
2022-10-02T01:48:50.652Z,6.33
2022-10-02T01:51:34.790Z,5.00
2022-10-02T01:54:01.363Z,8.03
2022-10-02T01:56:39.193Z,6.03
2022-10-02T01:59:23.909Z,8.70
2022-10-02T02:02:17.760Z,9.20
2022-10-02T02:04:47.119Z,8.53
2022-10-02T02:07:28.145Z,10.30
2022-10-02T02:10:10.091Z,6.10
2022-10-02T02:12:43.082Z,5.60
2022-10-02T02:15:28.647Z,10.43
2022-10-02T02:18:01.780Z,5.97
2022-10-02T02:20:38.623Z,7.50
2022-10-02T02:23:12.233Z,6.87
2022-10-02T02:25:45.077Z,7.67
2022-10-02T02:28:14.831Z,11.57
2022-10-02T02:30:45.288Z,4.80
2022-10-02T02:33:18.186Z,5.83
2022-10-02T02:35:48.660Z,9.87
2022-10-02T02:38:24.739Z,17.83
2022-10-02T02:40:51.803Z,8.00
2022-10-02T02:43:44.318Z,8.67
2022-10-02T02:46:55.778Z,7.33
2022-10-02T02:49:25.178Z,5.13
2022-10-02T02:51:54.283Z,8.70
2022-10-02T02:54:36.640Z,7.17
2022-10-02T02:57:05.331Z,12.60
2022-10-02T02:59:33.839Z,9.87
2022-10-02T03:02:00.697Z,4.40
2022-10-02T03:04:27.504Z,11.40
2022-10-02T03:07:00.749Z,5.57
2022-10-02T03:09:29.844Z,4.03
2022-10-02T03:12:09.006Z,5.50
2022-10-02T03:15:06.582Z,7.40
2022-10-02T03:17:58.218Z,7.80
2022-10-02T03:21:15.184Z,5.57
2022-10-02T03:23:50.517Z,11.13
2022-10-02T03:26:30.046Z,7.13
2022-10-02T03:29:01.754Z,8.67
2022-10-02T03:31:32.699Z,8.23
2022-10-02T03:34:01.922Z,8.03
2022-10-02T03:36:28.693Z,6.33
2022-10-02T03:39:23.223Z,8.80
2022-10-02T03:41:45.930Z,13.47
2022-10-02T03:44:12.667Z,5.93
2022-10-02T03:46:39.780Z,8.63
2022-10-02T03:49:06.683Z,8.77
2022-10-02T03:51:33.327Z,9.00
2022-10-02T03:53:59.998Z,11.30
2022-10-02T03:56:46.346Z,9.03
2022-10-02T03:59:19.819Z,9.03
2022-10-02T04:01:54.922Z,11.47
2022-10-02T04:04:44.745Z,8.93
2022-10-02T04:07:17.842Z,8.53
2022-10-02T04:09:58.932Z,12.37
2022-10-02T04:12:28.776Z,7.90
2022-10-02T04:15:00.894Z,6.97
2022-10-02T04:17:30.433Z,10.33
2022-10-02T04:20:03.325Z,9.33
2022-10-02T04:23:00.587Z,8.37
2022-10-02T04:25:33.531Z,8.97
2022-10-02T04:28:06.106Z,8.67
2022-10-02T04:30:32.773Z,18.93
2022-10-02T04:33:13.714Z,7.90
2022-10-02T04:35:53.768Z,9.27
2022-10-02T04:38:38.576Z,8.83
2022-10-02T04:41:56.113Z,7.27
2022-10-02T04:44:42.405Z,7.70
2022-10-02T04:47:20.356Z,8.80
2022-10-02T04:50:21.840Z,10.30
2022-10-02T04:53:12.494Z,11.60
2022-10-02T04:55:51.254Z,19.83
2022-10-02T04:58:25.126Z,11.83
2022-10-02T05:01:08.574Z,13.43
2022-10-02T05:04:05.457Z,13.10
2022-10-02T05:06:38.255Z,5.77
2022-10-02T05:09:28.425Z,14.87
2022-10-02T05:12:17.087Z,12.40
2022-10-02T05:15:12.129Z,9.43
2022-10-02T05:18:14.600Z,12.30
2022-10-02T05:20:52.254Z,10.77
2022-10-02T05:23:57.863Z,12.60
2022-10-02T05:26:56.535Z,12.23
2022-10-02T05:29:54.805Z,9.43
2022-10-02T05:32:38.400Z,8.10
2022-10-02T05:35:08.117Z,9.00
2022-10-02T05:37:46.756Z,7.83
2022-10-02T05:40:32.170Z,10.67
2022-10-02T05:43:11.819Z,6.80
2022-10-02T05:45:43.989Z,7.57
2022-10-02T05:48:42.956Z,11.63
2022-10-02T05:51:18.501Z,15.40
2022-10-02T05:54:31.352Z,11.00
2022-10-02T05:57:04.933Z,9.17
2022-10-02T06:00:01.903Z,9.63
2022-10-02T06:02:47.455Z,4.77
2022-10-02T06:05:35.251Z,8.67
2022-10-02T06:08:06.647Z,6.77
2022-10-02T06:10:42.865Z,9.63
2022-10-02T06:13:15.709Z,3.90
2022-10-02T06:15:53.076Z,6.90
2022-10-02T06:18:26.954Z,5.50
2022-10-02T06:20:58.731Z,6.50
2022-10-02T06:23:31.214Z,7.13
2022-10-02T06:26:02.565Z,5.90
2022-10-02T06:28:41.323Z,7.83
2022-10-02T06:31:13.861Z,7.23
2022-10-02T06:33:40.640Z,5.07
2022-10-02T06:36:16.125Z,6.20
2022-10-02T06:39:13.368Z,3.83
2022-10-02T06:41:54.126Z,9.07
2022-10-02T06:44:50.462Z,5.70
2022-10-02T06:47:35.326Z,6.00
2022-10-02T06:50:28.571Z,5.33
2022-10-02T06:53:10.271Z,7.37
2022-10-02T06:55:51.475Z,3.87
2022-10-02T06:58:50.292Z,3.60
2022-10-02T07:01:57.962Z,8.00
2022-10-02T07:04:57.343Z,2.40
2022-10-02T07:07:41.793Z,7.93
2022-10-02T07:10:21.466Z,6.27
2022-10-02T07:13:12.582Z,5.90
2022-10-02T07:15:45.169Z,6.37
2022-10-02T07:18:29.875Z,4.03
2022-10-02T07:21:24.256Z,5.00
2022-10-02T07:24:29.702Z,4.67
2022-10-02T07:27:04.097Z,4.90
2022-10-02T07:29:50.385Z,5.80
2022-10-02T07:32:30.963Z,7.83
2022-10-02T07:35:06.617Z,5.27
2022-10-02T07:38:05.583Z,6.77
2022-10-02T07:40:50.618Z,7.23
2022-10-02T07:43:47.933Z,2.93
2022-10-02T07:46:35.028Z,4.37
2022-10-02T07:49:36.648Z,4.83
2022-10-02T07:52:35.369Z,6.23
2022-10-02T07:55:20.093Z,3.40
2022-10-02T07:57:53.667Z,6.50
2022-10-02T08:00:24.257Z,3.50
2022-10-02T08:03:12.203Z,3.57
2022-10-02T08:05:47.698Z,2.80
2022-10-02T08:08:39.114Z,2.80
2022-10-02T08:11:28.804Z,5.37
2022-10-02T08:14:19.360Z,7.03
2022-10-02T08:16:50.812Z,2.60
2022-10-02T08:19:29.817Z,3.10
2022-10-02T08:22:10.031Z,2.07
2022-10-02T08:24:45.858Z,3.60
2022-10-02T08:27:20.894Z,4.43
2022-10-02T08:30:03.551Z,4.97
2022-10-02T08:32:36.334Z,4.90
2022-10-02T08:35:14.095Z,4.07
2022-10-02T08:38:12.314Z,5.03
2022-10-02T08:41:08.098Z,5.20
2022-10-02T08:44:11.051Z,3.10
2022-10-02T08:46:56.945Z,4.07
2022-10-02T08:49:41.515Z,3.80
2022-10-02T08:52:25.787Z,12.90
2022-10-02T08:55:16.614Z,6.93
2022-10-02T08:58:20.914Z,2.70
2022-10-02T09:01:24.695Z,3.30
2022-10-02T09:04:31.207Z,8.23
2022-10-02T09:07:16.496Z,3.87
2022-10-02T09:09:43.063Z,7.37
2022-10-02T09:12:24.990Z,4.77
2022-10-02T09:15:11.328Z,4.13
2022-10-02T09:18:02.761Z,4.30
2022-10-02T09:20:49.588Z,9.03
2022-10-02T09:23:31.260Z,3.10
2022-10-02T09:26:19.331Z,3.50
2022-10-02T09:29:07.603Z,2.70
2022-10-02T09:32:03.856Z,3.60
2022-10-02T09:34:52.141Z,2.90
2022-10-02T09:37:54.835Z,2.53
2022-10-02T09:40:55.131Z,1.77
2022-10-02T09:43:55.550Z,4.73
2022-10-02T09:46:26.692Z,6.73
2022-10-02T09:49:17.585Z,15.10
2022-10-02T09:51:53.219Z,8.83
2022-10-02T09:54:25.763Z,5.13
2022-10-02T09:57:17.567Z,4.43
2022-10-02T10:00:21.867Z,5.50
2022-10-02T10:03:23.025Z,5.10
2022-10-02T10:06:23.962Z,3.83
2022-10-02T10:09:08.787Z,2.73
2022-10-02T10:11:47.432Z,2.80
2022-10-02T10:14:40.207Z,2.70
2022-10-02T10:17:19.114Z,3.70
2022-10-02T10:20:14.203Z,4.30
2022-10-02T10:23:02.158Z,2.80
2022-10-02T10:25:50.101Z,4.23
2022-10-02T10:28:19.967Z,8.63
2022-10-02T10:31:24.568Z,6.63
2022-10-02T10:34:21.479Z,4.30
2022-10-02T10:37:22.260Z,2.87
2022-10-02T10:40:16.395Z,3.13
2022-10-02T10:43:14.316Z,2.17
2022-10-02T10:46:06.711Z,1.40
2022-10-02T10:48:36.413Z,6.53
2022-10-02T10:51:21.801Z,1.80
2022-10-02T10:54:21.350Z,2.33
2022-10-02T10:57:04.566Z,1.40
2022-10-02T10:59:55.769Z,1.73
2022-10-02T11:02:55.047Z,1.70
2022-10-02T11:05:47.147Z,1.80
2022-10-02T11:08:35.037Z,1.33
2022-10-02T11:11:32.853Z,1.30
2022-10-02T11:14:12.647Z,1.67
2022-10-02T11:17:00.907Z,2.30
2022-10-02T11:19:48.633Z,1.83
2022-10-02T11:22:37.801Z,0.70
2022-10-02T11:25:16.038Z,1.80
2022-10-02T11:28:22.027Z,0.90
2022-10-02T11:30:54.936Z,1.10
2022-10-02T11:33:48.448Z,0.93
2022-10-02T11:36:41.672Z,4.40
2022-10-02T11:39:22.020Z,2.93
2022-10-02T11:42:05.780Z,1.83
2022-10-02T11:44:42.513Z,1.03
2022-10-02T11:47:28.640Z,3.27
2022-10-02T11:50:44.599Z,1.20
2022-10-02T11:53:20.241Z,2.27
2022-10-02T11:56:05.341Z,1.20
2022-10-02T11:58:50.205Z,1.30
2022-10-02T12:01:35.753Z,2.63
2022-10-02T12:04:22.980Z,0.70
2022-10-02T12:07:15.405Z,2.70
2022-10-02T12:10:16.061Z,0.93
2022-10-02T12:13:17.868Z,3.53
2022-10-02T12:16:08.729Z,14.60
2022-10-02T12:18:41.321Z,7.83
2022-10-02T12:21:26.346Z,1.63
2022-10-02T12:24:16.266Z,1.57
2022-10-02T12:27:00.097Z,1.30
2022-10-02T12:29:54.054Z,2.03
2022-10-02T12:32:36.276Z,1.40
2022-10-02T12:35:24.490Z,1.90
2022-10-02T12:38:06.155Z,2.00
2022-10-02T12:40:56.446Z,3.37
2022-10-02T12:43:55.489Z,3.93
2022-10-02T12:46:43.195Z,2.43
2022-10-02T12:49:49.319Z,2.20
2022-10-02T12:52:32.544Z,1.73
2022-10-02T12:55:31.110Z,1.67
2022-10-02T12:58:40.398Z,1.43
2022-10-02T13:01:12.899Z,1.30
2022-10-02T13:03:55.217Z,1.23
2022-10-02T13:06:43.132Z,4.07
2022-10-02T13:09:15.650Z,1.40
2022-10-02T13:12:03.323Z,2.67
2022-10-02T13:14:44.920Z,1.10
2022-10-02T13:17:36.319Z,1.43
2022-10-02T13:20:15.336Z,1.80
2022-10-02T13:23:00.407Z,0.97
2022-10-02T13:25:26.961Z,3.30
2022-10-02T13:28:13.609Z,1.10
2022-10-02T13:30:57.949Z,2.00
2022-10-02T13:33:50.090Z,0.70
2022-10-02T13:36:39.903Z,1.23
2022-10-02T13:39:20.925Z,2.10
2022-10-02T13:42:18.171Z,2.17
2022-10-02T13:45:03.617Z,1.63
2022-10-02T13:47:51.983Z,0.90
2022-10-02T13:50:42.113Z,1.10
2022-10-02T13:53:16.030Z,1.20
2022-10-02T13:55:47.412Z,0.80
2022-10-02T13:58:23.150Z,1.40
2022-10-02T14:01:11.873Z,1.30
2022-10-02T14:03:41.538Z,2.03
2022-10-02T14:06:20.661Z,1.50
2022-10-02T14:09:02.263Z,1.00
2022-10-02T14:11:31.583Z,1.33
2022-10-02T14:14:32.399Z,1.70
2022-10-02T14:17:12.226Z,1.40
2022-10-02T14:19:52.679Z,1.70
2022-10-02T14:22:48.815Z,1.73
2022-10-02T14:25:35.903Z,2.07
2022-10-02T14:28:25.757Z,2.10
2022-10-02T14:31:14.428Z,1.93
2022-10-02T14:34:09.059Z,3.40
2022-10-02T14:36:46.566Z,4.67
2022-10-02T14:39:23.017Z,7.03
2022-10-02T14:42:10.735Z,11.03
2022-10-02T14:44:39.480Z,11.93
2022-10-02T14:47:12.065Z,11.40
2022-10-02T14:49:53.633Z,6.07
2022-10-02T14:52:31.311Z,11.53
2022-10-02T14:54:57.877Z,8.60
2022-10-02T14:57:33.801Z,4.47
2022-10-02T15:00:15.591Z,5.10
2022-10-02T15:03:01.886Z,2.70
2022-10-02T15:05:58.792Z,2.40
2022-10-02T15:08:32.320Z,5.80
2022-10-02T15:11:00.344Z,3.00
2022-10-02T15:13:52.144Z,1.87
2022-10-02T15:17:06.213Z,1.77
2022-10-02T15:19:49.771Z,1.80
2022-10-02T15:22:29.975Z,2.07
2022-10-02T15:25:17.920Z,3.23
2022-10-02T15:28:34.632Z,3.23
2022-10-02T15:31:17.845Z,2.50
2022-10-02T15:33:55.860Z,1.40
2022-10-02T15:36:54.864Z,2.70
2022-10-02T15:40:05.519Z,2.67
2022-10-02T15:42:55.108Z,2.70
2022-10-02T15:45:30.336Z,3.33
2022-10-02T15:48:28.011Z,2.30
2022-10-02T15:51:03.452Z,2.20
2022-10-02T15:53:51.492Z,3.20
2022-10-02T15:56:20.883Z,2.77
2022-10-02T15:59:05.556Z,3.10
2022-10-02T16:01:32.126Z,1.70
2022-10-02T16:04:17.660Z,4.37
2022-10-02T16:06:53.466Z,2.10
2022-10-02T16:09:35.211Z,4.63
2022-10-02T16:12:38.139Z,2.57
2022-10-02T16:15:27.053Z,3.80
2022-10-02T16:18:21.089Z,4.97
2022-10-02T16:21:08.868Z,2.80
2022-10-02T16:23:44.519Z,2.43
2022-10-02T16:26:35.380Z,4.20
2022-10-02T16:29:42.651Z,2.63
2022-10-02T16:32:15.595Z,3.87
2022-10-02T16:35:20.278Z,3.03
2022-10-02T16:38:07.481Z,4.30
2022-10-02T16:41:03.820Z,2.70
2022-10-02T16:43:59.936Z,5.30
2022-10-02T16:46:42.596Z,7.10
2022-10-02T16:49:33.705Z,2.53
2022-10-02T16:52:25.886Z,5.50
2022-10-02T16:55:17.440Z,3.70
2022-10-02T16:57:46.776Z,4.23
2022-10-02T17:00:24.128Z,5.43
2022-10-02T17:03:02.592Z,5.80
2022-10-02T17:06:05.987Z,30.00
2022-10-02T17:08:35.665Z,41.43
2022-10-02T17:11:30.676Z,30.23
2022-10-02T17:14:18.631Z,22.03
2022-10-02T17:16:55.431Z,9.47
2022-10-02T17:19:47.487Z,9.30
2022-10-02T17:22:47.126Z,8.40
2022-10-02T17:25:49.801Z,3.93
2022-10-02T17:28:39.828Z,4.57
2022-10-02T17:31:31.852Z,2.90
2022-10-02T17:34:19.899Z,2.50
2022-10-02T17:37:06.965Z,3.13
2022-10-02T17:40:16.553Z,3.80
2022-10-02T17:42:52.429Z,4.13
2022-10-02T17:45:31.253Z,4.00
2022-10-02T17:48:38.045Z,3.70
2022-10-02T17:51:55.957Z,5.23
2022-10-02T17:54:44.132Z,3.30
2022-10-02T17:57:22.707Z,2.97
2022-10-02T18:00:34.867Z,5.50
2022-10-02T18:03:19.941Z,9.43
2022-10-02T18:05:53.217Z,10.53
2022-10-02T18:08:39.514Z,14.13
2022-10-02T18:11:10.351Z,10.27
2022-10-02T18:14:11.551Z,7.50
2022-10-02T18:17:07.448Z,6.00
2022-10-02T18:20:05.730Z,7.60
2022-10-02T18:22:47.498Z,5.50
2022-10-02T18:25:18.920Z,8.70
2022-10-02T18:27:56.097Z,6.40
2022-10-02T18:30:26.010Z,5.00
2022-10-02T18:33:24.122Z,6.20
2022-10-02T18:36:05.305Z,7.47
2022-10-02T18:38:45.838Z,5.10
2022-10-02T18:41:24.434Z,5.50
2022-10-02T18:43:59.834Z,6.60
2022-10-02T18:46:46.706Z,6.60
2022-10-02T18:49:28.321Z,5.00
2022-10-02T18:52:21.206Z,4.57
2022-10-02T18:54:50.972Z,6.93
2022-10-02T18:57:56.326Z,5.10
2022-10-02T19:00:25.863Z,6.57
2022-10-02T19:03:31.206Z,4.90
2022-10-02T19:06:09.501Z,7.50
2022-10-02T19:09:01.042Z,4.53
2022-10-02T19:11:30.935Z,5.47
2022-10-02T19:14:02.169Z,8.00
2022-10-02T19:16:31.050Z,6.80
2022-10-02T19:19:28.237Z,6.57
2022-10-02T19:22:00.067Z,6.10
2022-10-02T19:24:32.720Z,8.20
2022-10-02T19:27:05.819Z,6.50
2022-10-02T19:29:45.318Z,4.47
2022-10-02T19:32:19.884Z,13.30
2022-10-02T19:34:51.199Z,11.70
2022-10-02T19:37:18.835Z,12.03
2022-10-02T19:39:53.249Z,9.87
2022-10-02T19:42:25.417Z,8.93
2022-10-02T19:45:02.760Z,6.60
2022-10-02T19:47:50.178Z,6.90
2022-10-02T19:50:36.404Z,6.87
2022-10-02T19:53:06.902Z,8.33
2022-10-02T19:55:39.291Z,4.60
2022-10-02T19:58:23.332Z,8.90
2022-10-02T20:00:52.100Z,6.33
2022-10-02T20:03:21.770Z,6.37
2022-10-02T20:05:52.904Z,8.47
2022-10-02T20:08:24.053Z,7.50
2022-10-02T20:11:19.725Z,8.60
2022-10-02T20:14:04.414Z,11.10
2022-10-02T20:16:49.801Z,10.67
2022-10-02T20:19:39.223Z,7.87
2022-10-02T20:22:53.332Z,12.30
2022-10-02T20:25:42.657Z,8.37
2022-10-02T20:28:15.447Z,8.07
2022-10-02T20:31:00.307Z,12.53
2022-10-02T20:33:33.581Z,14.73
2022-10-02T20:36:06.719Z,15.60
2022-10-02T20:38:43.751Z,20.00
2022-10-02T20:41:33.558Z,11.00
2022-10-02T20:44:04.357Z,9.30
2022-10-02T20:46:35.651Z,10.63
2022-10-02T20:49:09.494Z,11.53
2022-10-02T20:52:01.785Z,11.83
2022-10-02T20:54:57.953Z,8.20
2022-10-02T20:57:43.338Z,13.97
2022-10-02T21:00:28.663Z,12.57
2022-10-02T21:03:10.741Z,21.20
2022-10-02T21:06:08.312Z,9.87
2022-10-02T21:08:56.894Z,9.03
2022-10-02T21:11:54.345Z,9.27
2022-10-02T21:14:27.007Z,7.33
2022-10-02T21:17:31.488Z,13.07
2022-10-02T21:20:10.219Z,11.37
2022-10-02T21:23:09.037Z,7.70
2022-10-02T21:26:19.832Z,12.90
2022-10-02T21:29:17.424Z,7.07
2022-10-02T21:32:20.245Z,8.53
2022-10-02T21:35:13.077Z,10.83
2022-10-02T21:38:16.069Z,14.93
2022-10-02T21:40:45.575Z,14.20
2022-10-02T21:43:33.498Z,7.83
2022-10-02T21:46:32.846Z,10.83
2022-10-02T21:49:41.752Z,9.60
2022-10-02T21:52:11.351Z,9.90
2022-10-02T21:55:21.367Z,7.03
2022-10-02T21:57:56.887Z,9.80
2022-10-02T22:00:26.489Z,13.60
2022-10-02T22:03:27.601Z,8.83
2022-10-02T22:06:06.637Z,13.00
2022-10-02T22:09:01.325Z,13.67
2022-10-02T22:11:33.314Z,7.97
2022-10-02T22:14:09.355Z,8.87
2022-10-02T22:16:47.238Z,10.50
2022-10-02T22:19:42.560Z,8.40
2022-10-02T22:22:27.850Z,11.30
2022-10-02T22:25:21.813Z,10.60
2022-10-02T22:28:06.989Z,9.87
2022-10-02T22:30:59.071Z,9.07
2022-10-02T22:33:54.064Z,10.30
2022-10-02T22:36:39.375Z,11.47
2022-10-02T22:39:12.174Z,12.23
2022-10-02T22:41:56.385Z,12.47
2022-10-02T22:44:44.463Z,10.07
2022-10-02T22:47:24.867Z,18.87
2022-10-02T22:50:06.366Z,12.83
2022-10-02T22:52:45.009Z,13.73
2022-10-02T22:55:26.036Z,11.10
2022-10-02T22:58:06.094Z,13.57
2022-10-02T23:01:08.070Z,15.07
2022-10-02T23:03:56.412Z,11.97
2022-10-02T23:06:30.669Z,22.83
2022-10-02T23:09:18.818Z,12.73
2022-10-02T23:12:16.799Z,11.80
2022-10-02T23:15:21.010Z,18.93
2022-10-02T23:17:58.129Z,17.97
2022-10-02T23:20:39.981Z,19.43
2022-10-02T23:23:28.279Z,13.90
2022-10-02T23:26:11.240Z,14.13
2022-10-02T23:28:53.048Z,12.43
2022-10-02T23:31:32.310Z,14.43
2022-10-02T23:34:21.107Z,14.60
2022-10-02T23:37:17.113Z,15.37
2022-10-02T23:39:56.565Z,13.43
2022-10-02T23:42:49.308Z,15.53
2022-10-02T23:45:41.775Z,14.17
2022-10-02T23:48:12.935Z,11.60
2022-10-02T23:50:46.654Z,13.00
2022-10-02T23:53:31.899Z,11.33
2022-10-02T23:56:12.109Z,11.30
2022-10-02T23:58:42.874Z,13.80
